Time;durP1;ratioP1;P1;durP2;ratioP2;P2;SDS_P1;SDS_P2;PMS_P1;PMS_P2;Temp;Humidity;BMP_temperature;BMP_pressure;BME280_temperature;BME280_humidity;BME280_pressure;Samples;Min_cycle;Max_cycle;Signal;HPM_P1;HPM_P2
2023/05/15 00:01:20;;;;;;;32.75;21.55;;;;;;;11.66;100.00;101373.78;4854182;29;20093;-79
2023/05/15 00:03:46;;;;;;;32.85;19.45;;;;;;;11.64;100.00;101375.72;4850049;29;20030;-79
2023/05/15 00:06:11;;;;;;;33.10;19.58;;;;;;;11.62;100.00;101369.56;4851761;29;20402;-79
2023/05/15 00:08:36;;;;;;;34.72;21.75;;;;;;;11.61;100.00;101362.47;4860377;29;20382;-79
2023/05/15 00:11:01;;;;;;;35.17;21.05;;;;;;;11.57;100.00;101366.31;4858991;29;20036;-79
2023/05/15 00:13:27;;;;;;;33.25;20.80;;;;;;;11.47;100.00;101366.97;4853241;29;20029;-79
2023/05/15 00:15:52;;;;;;;33.67;22.45;;;;;;;11.44;100.00;101367.19;4852759;29;20147;-79
2023/05/15 00:18:17;;;;;;;38.50;22.67;;;;;;;11.46;100.00;101376.00;4861223;29;20233;-79
2023/05/15 00:20:43;;;;;;;34.67;21.92;;;;;;;11.46;100.00;101372.47;4853857;29;20065;-79
2023/05/15 00:23:08;;;;;;;39.42;22.73;;;;;;;11.43;100.00;101372.69;4850969;29;20033;-79
2023/05/15 00:25:34;;;;;;;38.95;22.63;;;;;;;11.42;100.00;101370.94;4857071;29;20037;-79
2023/05/15 00:27:59;;;;;;;36.97;22.23;;;;;;;11.35;100.00;101357.06;4859879;29;20021;-79
2023/05/15 00:30:24;;;;;;;34.60;22.45;;;;;;;11.32;100.00;101360.81;4853883;29;20037;-79
2023/05/15 00:32:50;;;;;;;33.78;21.35;;;;;;;11.30;100.00;101364.56;4852290;29;20061;-79
2023/05/15 00:35:15;;;;;;;36.22;23.20;;;;;;;11.29;100.00;101352.97;4851194;29;20501;-79
2023/05/15 00:37:40;;;;;;;34.63;21.83;;;;;;;11.28;100.00;101342.31;4856134;29;20116;-79
2023/05/15 00:40:08;;;;;;;33.22;22.30;;;;;;;11.27;100.00;101351.34;4860505;29;20041;-79
2023/05/15 00:42:34;;;;;;;34.70;20.50;;;;;;;11.25;100.00;101342.53;4852937;29;20402;-79
2023/05/15 00:45:01;;;;;;;34.20;23.92;;;;;;;11.22;100.00;101350.81;4854415;29;20033;-79
2023/05/15 00:47:26;;;;;;;36.00;23.40;;;;;;;11.14;100.00;101345.91;4857549;29;20034;-79
2023/05/15 00:49:52;;;;;;;36.38;23.15;;;;;;;11.13;100.00;101342.38;4854493;29;20074;-79
2023/05/15 00:52:18;;;;;;;35.40;23.10;;;;;;;11.09;100.00;101348.94;4855990;29;20112;-79
2023/05/15 00:54:43;;;;;;;37.38;24.38;;;;;;;11.05;100.00;101343.88;4854728;29;20041;-79
2023/05/15 00:57:10;;;;;;;38.25;24.33;;;;;;;11.00;100.00;101342.34;4854846;29;20040;-79
2023/05/15 00:59:38;;;;;;;35.75;23.52;;;;;;;10.99;100.00;101334.38;4858367;29;20026;-79
2023/05/15 01:02:03;;;;;;;34.33;23.08;;;;;;;10.95;100.00;101335.53;4859333;29;20597;-79
2023/05/15 01:04:28;;;;;;;40.08;24.48;;;;;;;10.90;100.00;101338.53;4852104;29;20033;-79
2023/05/15 01:06:54;;;;;;;33.88;23.30;;;;;;;10.89;100.00;101331.44;4851199;29;20033;-78
2023/05/15 01:09:23;;;;;;;40.33;23.33;;;;;;;10.79;100.00;101336.59;4851482;29;20042;-79
2023/05/15 01:11:52;;;;;;;36.95;23.90;;;;;;;10.79;100.00;101336.59;4859785;29;20591;-79
2023/05/15 01:14:17;;;;;;;36.17;23.20;;;;;;;10.75;100.00;101329.69;4853878;29;20124;-79
2023/05/15 01:16:42;;;;;;;38.22;24.13;;;;;;;10.66;100.00;101330.31;4855948;29;20129;-79
2023/05/15 01:19:08;;;;;;;37.67;24.08;;;;;;;10.67;100.00;101334.69;4860457;29;20064;-79
2023/05/15 01:21:33;;;;;;;39.35;25.17;;;;;;;10.63;100.00;101331.34;4859060;29;20036;-79
2023/05/15 01:24:01;;;;;;;41.25;24.55;;;;;;;10.57;100.00;101331.78;4857590;29;20037;-79
2023/05/15 01:26:54;;;;;;;38.58;24.92;;;;;;;10.61;100.00;101332.41;4852975;29;20033;-79
2023/05/15 01:29:31;;;;;;;37.10;23.02;;;;;;;10.52;100.00;101333.03;4848584;29;20040;-79
2023/05/15 01:32:02;;;;;;;36.92;23.77;;;;;;;10.46;100.00;101324.38;4856677;29;20037;-79
2023/05/15 01:34:40;;;;;;;35.65;24.38;;;;;;;10.52;100.00;101323.13;4858709;29;20464;-79
2023/05/15 01:37:07;;;;;;;40.47;26.33;;;;;;;10.46;100.00;101327.06;4859359;29;20033;-79
2023/05/15 01:39:35;;;;;;;38.53;25.05;;;;;;;10.43;100.00;101324.59;4855321;29;20041;-79
2023/05/15 01:42:08;;;;;;;37.10;23.92;;;;;;;10.45;100.00;101319.13;4855088;29;20406;-79
2023/05/15 01:44:37;;;;;;;35.80;22.83;;;;;;;10.43;100.00;101323.75;4844733;29;20045;-79
2023/05/15 01:47:13;;;;;;;36.22;24.40;;;;;;;10.44;100.00;101320.06;4859364;29;20085;-79
2023/05/15 01:49:41;;;;;;;39.45;25.30;;;;;;;10.39;100.00;101309.63;4853144;29;20470;-78
2023/05/15 01:52:29;;;;;;;36.83;23.50;;;;;;;10.41;100.00;101309.53;4857704;29;20064;-79
2023/05/15 01:54:56;;;;;;;37.60;24.67;;;;;;;10.34;100.00;101303.69;4852789;29;20033;-79
2023/05/15 01:57:23;;;;;;;38.47;24.60;;;;;;;10.34;100.00;101310.88;4857030;29;20078;-79
2023/05/15 01:59:50;;;;;;;37.03;23.67;;;;;;;10.28;100.00;101304.06;4857774;29;20029;-79
2023/05/15 02:02:17;;;;;;;38.03;24.15;;;;;;;10.25;100.00;101309.63;4857617;29;20387;-78
2023/05/15 02:04:44;;;;;;;39.45;25.25;;;;;;;10.23;100.00;101298.13;4850229;29;20386;-79
2023/05/15 02:07:09;;;;;;;36.65;24.90;;;;;;;10.17;100.00;101301.22;4855199;29;20045;-79
2023/05/15 02:09:36;;;;;;;39.35;26.95;;;;;;;10.16;100.00;101303.00;4858020;29;20044;-79
2023/05/15 02:12:03;;;;;;;37.22;25.27;;;;;;;10.12;100.00;101305.06;4849226;29;20030;-79
2023/05/15 02:14:30;;;;;;;41.15;26.40;;;;;;;10.13;100.00;101301.41;4856133;29;20394;-79
2023/05/15 02:16:55;;;;;;;41.92;26.67;;;;;;;10.17;100.00;101301.22;4851673;29;20132;-79
2023/05/15 02:19:20;;;;;;;40.20;26.65;;;;;;;10.14;100.00;101305.81;4855231;29;20569;-79
2023/05/15 02:21:46;;;;;;;40.42;27.00;;;;;;;10.11;100.00;101305.16;4849970;29;20120;-79
2023/05/15 02:24:11;;;;;;;43.95;28.95;;;;;;;10.14;100.00;101303.13;4851311;29;20066;-79
2023/05/15 02:27:03;;;;;;;44.53;28.88;;;;;;;10.18;100.00;101300.25;4851664;29;20029;-79
2023/05/15 02:29:51;;;;;;;42.38;28.98;;;;;;;10.16;100.00;101297.66;4853695;29;20435;-79
2023/05/15 02:32:19;;;;;;;46.75;28.92;;;;;;;10.15;100.00;101304.84;4847903;29;20540;-79
2023/05/15 02:35:20;;;;;;;38.58;25.75;;;;;;;10.18;100.00;101311.00;4848323;29;20029;-79
2023/05/15 02:37:51;;;;;;;43.50;28.80;;;;;;;10.17;100.00;101317.34;4855099;29;20040;-79
2023/05/15 02:40:19;;;;;;;44.90;31.17;;;;;;;10.17;100.00;101323.56;4855367;29;20116;-79
2023/05/15 02:42:46;;;;;;;41.50;30.20;;;;;;;10.16;100.00;101321.81;4858256;29;20030;-79
2023/05/15 02:45:11;;;;;;;46.78;31.33;;;;;;;10.14;100.00;101324.59;4856570;29;20037;-79
2023/05/15 02:47:39;;;;;;;46.15;32.28;;;;;;;10.19;100.00;101321.66;4848674;29;20101;-79
2023/05/15 02:50:05;;;;;;;43.47;30.58;;;;;;;10.18;100.00;101324.44;4855703;29;20037;-79
2023/05/15 02:52:33;;;;;;;46.42;31.50;;;;;;;10.17;100.00;101328.06;4850320;29;20029;-79
2023/05/15 02:54:58;;;;;;;43.83;30.40;;;;;;;10.15;100.00;101320.13;4852263;29;20486;-79
2023/05/15 02:57:23;;;;;;;47.35;31.45;;;;;;;10.13;100.00;101312.16;4850669;29;20170;-79
2023/05/15 02:59:49;;;;;;;50.33;32.83;;;;;;;10.09;100.00;101315.13;4858554;29;20044;-78
2023/05/15 03:02:14;;;;;;;44.67;30.10;;;;;;;10.07;100.00;101312.56;4850862;29;20038;-78
2023/05/15 03:04:39;;;;;;;42.00;30.20;;;;;;;10.08;100.00;101313.41;4848308;29;20124;-78
2023/05/15 03:07:05;;;;;;;44.47;29.65;;;;;;;10.08;100.00;101311.56;4853524;29;20545;-78
2023/05/15 03:09:30;;;;;;;43.88;28.58;;;;;;;10.03;100.00;101308.34;4859076;29;20037;-79
2023/05/15 03:11:55;;;;;;;46.50;32.80;;;;;;;10.03;100.00;101305.66;4851446;29;20482;-78
2023/05/15 03:14:20;;;;;;;46.05;30.15;;;;;;;10.00;100.00;101310.34;4853286;29;20128;-78
2023/05/15 03:16:46;;;;;;;51.00;31.73;;;;;;;10.02;100.00;101309.28;4851105;29;20050;-79
2023/05/15 03:19:11;;;;;;;47.63;32.83;;;;;;;10.01;100.00;101304.00;4851071;29;20128;-78
2023/05/15 03:21:36;;;;;;;49.00;32.47;;;;;;;9.99;100.00;101297.88;4851397;29;20033;-79
2023/05/15 03:24:02;;;;;;;48.67;31.77;;;;;;;9.97;100.00;101304.22;4848928;29;20394;-78
2023/05/15 03:26:27;;;;;;;45.88;32.20;;;;;;;9.94;100.00;101306.22;4848427;29;20425;-79
2023/05/15 03:28:52;;;;;;;45.83;31.98;;;;;;;9.87;100.00;101307.56;4853130;29;20037;-79
2023/05/15 03:31:18;;;;;;;45.97;32.53;;;;;;;9.88;100.00;101302.13;4850165;29;20120;-79
2023/05/15 03:33:45;;;;;;;52.28;34.75;;;;;;;9.87;100.00;101295.00;4858984;29;20092;-79
2023/05/15 03:36:11;;;;;;;49.78;33.30;;;;;;;9.84;100.00;101297.00;4849799;29;20042;-79
2023/05/15 03:38:36;;;;;;;50.28;32.50;;;;;;;9.79;100.00;101295.50;4854606;29;20439;-78
2023/05/15 03:41:02;;;;;;;48.10;32.05;;;;;;;9.78;100.00;101284.84;4859066;29;20060;-79
2023/05/15 03:43:27;;;;;;;50.00;30.48;;;;;;;9.70;100.00;101282.66;4851108;29;20124;-79
2023/05/15 03:45:52;;;;;;;45.85;33.22;;;;;;;9.73;100.00;101284.28;4851520;29;20033;-79
2023/05/15 03:48:18;;;;;;;50.10;33.58;;;;;;;9.72;100.00;101288.81;4851962;29;20037;-79
2023/05/15 03:50:44;;;;;;;47.33;30.63;;;;;;;9.71;100.00;101287.06;4861558;29;20046;-79
2023/05/15 03:53:10;;;;;;;44.42;32.08;;;;;;;9.65;100.00;101282.09;4854345;29;20038;-79
2023/05/15 03:55:35;;;;;;;45.13;30.92;;;;;;;9.59;100.00;101279.75;4853993;29;20098;-79
2023/05/15 03:58:01;;;;;;;48.75;32.45;;;;;;;9.58;100.00;101283.44;4852696;29;20037;-79
2023/05/15 04:00:26;;;;;;;44.03;31.92;;;;;;;9.51;100.00;101287.44;4852785;29;20090;-79
2023/05/15 04:02:52;;;;;;;51.42;33.70;;;;;;;9.48;100.00;101283.13;4852739;29;20026;-78
2023/05/15 04:05:18;;;;;;;48.95;32.40;;;;;;;9.41;100.00;101281.78;4854454;29;20506;-78
2023/05/15 04:07:44;;;;;;;49.05;31.90;;;;;;;9.37;100.00;101281.13;4860136;29;20041;-78
2023/05/15 04:10:09;;;;;;;52.92;34.40;;;;;;;9.35;100.00;101274.97;4856736;29;20082;-79
2023/05/15 04:12:35;;;;;;;50.00;34.85;;;;;;;9.39;100.00;101283.69;4851224;29;20037;-79
2023/05/15 04:15:15;;;;;;;51.75;35.53;;;;;;;9.42;100.00;101291.56;4858967;29;20034;-79
2023/05/15 04:17:41;;;;;;;52.83;33.72;;;;;;;9.40;100.00;101290.78;4859867;29;20061;-78
2023/05/15 04:20:07;;;;;;;54.13;36.00;;;;;;;9.40;100.00;101288.97;4860050;29;20124;-78
2023/05/15 04:22:32;;;;;;;52.28;36.60;;;;;;;9.42;100.00;101284.34;4856484;29;20033;-78
2023/05/15 04:24:58;;;;;;;52.00;35.80;;;;;;;9.43;100.00;101283.41;4855978;29;20084;-78
2023/05/15 04:27:24;;;;;;;53.72;34.65;;;;;;;9.44;100.00;101287.84;4852622;29;20033;-78
2023/05/15 04:29:50;;;;;;;50.00;34.88;;;;;;;9.45;100.00;101288.69;4855784;29;20034;-78
2023/05/15 04:32:15;;;;;;;51.60;36.17;;;;;;;9.48;100.00;101293.84;4857928;29;20037;-78
2023/05/15 04:34:41;;;;;;;49.13;35.60;;;;;;;9.53;100.00;101297.13;4858641;29;20021;-78
2023/05/15 04:37:06;;;;;;;51.78;36.50;;;;;;;9.53;100.00;101304.31;4857889;29;20026;-78
2023/05/15 04:39:31;;;;;;;58.40;38.90;;;;;;;9.55;100.00;101300.56;4860505;29;20029;-78
2023/05/15 04:41:57;;;;;;;52.65;36.85;;;;;;;9.54;100.00;101301.53;4860846;29;20030;-79
2023/05/15 04:44:22;;;;;;;54.78;38.08;;;;;;;9.53;100.00;101306.97;4857981;29;20528;-78
2023/05/15 04:46:47;;;;;;;52.90;38.10;;;;;;;9.52;100.00;101316.88;4855645;29;20034;-78
2023/05/15 04:49:13;;;;;;;58.20;39.15;;;;;;;9.52;100.00;101308.81;4851245;29;20395;-79
2023/05/15 04:51:38;;;;;;;54.95;38.95;;;;;;;9.57;100.00;101317.44;4853148;29;20093;-79
2023/05/15 04:54:03;;;;;;;53.53;38.85;;;;;;;9.61;100.00;101320.81;4857474;29;20029;-78
2023/05/15 04:56:29;;;;;;;53.08;39.08;;;;;;;9.69;100.00;101320.31;4859503;29;20496;-78
2023/05/15 04:58:54;;;;;;;58.72;41.47;;;;;;;9.72;100.00;101318.31;4856194;29;20053;-79
2023/05/15 05:01:19;;;;;;;57.88;40.40;;;;;;;9.74;100.00;101320.91;4851150;29;20034;-79
2023/05/15 05:03:44;;;;;;;62.22;40.78;;;;;;;9.77;100.00;101316.19;4853569;29;20579;-78
2023/05/15 05:06:10;;;;;;;57.58;40.85;;;;;;;9.79;100.00;101319.66;4861205;29;20033;-79
2023/05/15 05:08:35;;;;;;;65.78;41.30;;;;;;;9.88;100.00;101322.72;4852082;29;20516;-78
2023/05/15 05:11:00;;;;;;;54.90;41.20;;;;;;;9.95;100.00;101318.69;4851570;29;20033;-79
2023/05/15 05:13:26;;;;;;;62.45;41.10;;;;;;;10.02;100.00;101319.19;4852604;29;20025;-78
2023/05/15 05:15:51;;;;;;;58.20;41.15;;;;;;;10.06;100.00;101326.94;4860109;29;20157;-79
2023/05/15 05:18:17;;;;;;;60.65;41.28;;;;;;;10.08;100.00;101321.47;4860444;29;20060;-79
2023/05/15 05:20:42;;;;;;;59.35;40.72;;;;;;;10.13;100.00;101322.91;4855082;29;20030;-79
2023/05/15 05:23:07;;;;;;;57.72;39.13;;;;;;;10.13;100.00;101322.91;4858493;29;20038;-78
2023/05/15 05:25:32;;;;;;;58.10;41.13;;;;;;;10.17;100.00;101322.69;4856521;29;20546;-78
2023/05/15 05:27:58;;;;;;;63.38;42.47;;;;;;;10.17;100.00;101331.59;4851187;29;20037;-79
2023/05/15 05:30:23;;;;;;;61.70;40.42;;;;;;;10.18;100.00;101330.66;4857024;29;20139;-79
2023/05/15 05:32:48;;;;;;;54.75;39.10;;;;;;;10.20;100.00;101336.78;4856179;29;20081;-79
2023/05/15 05:35:14;;;;;;;55.22;39.55;;;;;;;10.25;100.00;101340.06;4858581;29;20056;-79
2023/05/15 05:37:39;;;;;;;54.95;38.67;;;;;;;10.28;100.00;101341.69;4858476;29;20086;-78
2023/05/15 05:40:05;;;;;;;57.67;37.88;;;;;;;10.30;100.00;101337.06;4858588;29;20029;-79
2023/05/15 05:42:31;;;;;;;57.90;37.08;;;;;;;10.32;100.00;101344.06;4849972;29;20037;-78
2023/05/15 05:44:56;;;;;;;52.75;35.33;;;;;;;10.32;100.00;101352.13;4849563;29;20404;-78
2023/05/15 05:47:21;;;;;;;54.20;34.38;;;;;;;10.34;100.00;101352.06;4844459;29;20047;-77
2023/05/15 05:49:47;;;;;;;53.97;33.38;;;;;;;10.32;100.00;101353.94;4853782;29;20570;-78
2023/05/15 05:52:12;;;;;;;51.78;33.03;;;;;;;10.32;100.00;101351.25;4845363;29;20485;-77
2023/05/15 05:54:37;;;;;;;49.17;33.63;;;;;;;10.39;100.00;101346.38;4853750;29;20083;-78
2023/05/15 05:57:03;;;;;;;47.95;33.33;;;;;;;10.43;100.00;101351.47;4850654;29;20055;-77
2023/05/15 05:59:29;;;;;;;45.67;31.55;;;;;;;10.44;100.00;101347.81;4845419;29;20097;-77
2023/05/15 06:01:54;;;;;;;45.22;31.75;;;;;;;10.47;100.00;101347.63;4852513;29;20034;-78
2023/05/15 06:04:20;;;;;;;56.03;32.67;;;;;;;10.49;100.00;101351.06;4849265;29;20044;-78
2023/05/15 06:06:45;;;;;;;46.58;32.45;;;;;;;10.56;100.00;101354.22;4856333;29;20033;-78
2023/05/15 06:09:10;;;;;;;51.28;32.67;;;;;;;10.61;100.00;101349.38;4849246;29;20037;-78
2023/05/15 06:11:36;;;;;;;48.70;31.85;;;;;;;10.69;100.00;101353.41;4847022;29;20102;-78
2023/05/15 06:14:01;;;;;;;48.20;31.17;;;;;;;10.72;100.00;101351.41;4855200;29;20026;-78
2023/05/15 06:16:26;;;;;;;44.42;29.10;;;;;;;10.76;100.00;101350.22;4846524;29;20064;-78
2023/05/15 06:18:52;;;;;;;51.40;32.58;;;;;;;10.81;100.00;101349.91;4850244;29;20099;-78
2023/05/15 06:21:17;;;;;;;46.33;30.38;;;;;;;10.80;100.00;101348.19;4851311;29;20402;-77
2023/05/15 06:23:42;;;;;;;43.75;30.42;;;;;;;10.81;100.00;101358.84;4855946;29;20072;-78
2023/05/15 06:26:08;;;;;;;41.47;29.27;;;;;;;10.84;100.00;101357.78;4855622;29;20130;-78
2023/05/15 06:28:33;;;;;;;42.42;28.10;;;;;;;10.91;100.00;101358.22;4855163;29;20105;-78
2023/05/15 06:30:58;;;;;;;42.15;29.20;;;;;;;10.98;100.00;101354.16;4847464;29;20082;-78
2023/05/15 06:33:24;;;;;;;42.00;29.23;;;;;;;11.04;100.00;101348.41;4854043;29;20460;-77
2023/05/15 06:35:49;;;;;;;44.58;28.98;;;;;;;11.03;100.00;101349.34;4859538;29;20572;-78
2023/05/15 06:38:14;;;;;;;41.95;28.90;;;;;;;11.04;100.00;101350.19;4853545;29;20061;-78
2023/05/15 06:40:40;;;;;;;41.40;27.90;;;;;;;11.04;99.82;101347.50;4855039;29;20109;-78
2023/05/15 06:43:05;;;;;;;42.75;29.48;;;;;;;11.04;100.00;101347.50;4851550;29;20065;-78
2023/05/15 06:45:30;;;;;;;45.08;30.33;;;;;;;11.03;100.00;101354.72;4847142;29;20085;-78
2023/05/15 06:47:56;;;;;;;42.95;29.35;;;;;;;11.11;100.00;101338.06;4853711;29;20081;-78
2023/05/15 06:50:21;;;;;;;42.38;28.83;;;;;;;11.21;100.00;101341.00;4848174;29;20057;-77
2023/05/15 06:52:46;;;;;;;40.70;28.67;;;;;;;11.25;100.00;101346.06;4850511;29;20041;-79
2023/05/15 06:55:12;;;;;;;48.17;31.05;;;;;;;11.26;99.62;101338.84;4842957;29;20029;-78
2023/05/15 06:57:37;;;;;;;43.38;32.70;;;;;;;11.37;100.00;101342.50;4850467;29;20033;-78
2023/05/15 07:00:04;;;;;;;46.55;31.33;;;;;;;11.44;100.00;101348.34;4847760;29;20037;-78
2023/05/15 07:02:29;;;;;;;45.42;33.85;;;;;;;11.46;97.26;101349.09;4853062;29;20026;-78
2023/05/15 07:04:55;;;;;;;49.42;33.70;;;;;;;11.49;97.78;101351.59;4848275;29;20037;-78
2023/05/15 07:07:20;;;;;;;48.30;33.90;;;;;;;11.47;98.20;101342.75;4850432;29;20026;-78
2023/05/15 07:09:47;;;;;;;41.45;28.60;;;;;;;11.54;97.22;101335.97;4848715;29;20498;-77
2023/05/15 07:12:13;;;;;;;42.28;30.92;;;;;;;11.64;98.30;101338.91;4852820;29;20029;-78
2023/05/15 07:14:38;;;;;;;46.80;34.08;;;;;;;11.71;97.78;101342.88;4847829;29;20042;-78
2023/05/15 07:17:04;;;;;;;45.33;32.50;;;;;;;11.76;95.83;101342.56;4847423;29;20076;-77
2023/05/15 07:19:29;;;;;;;47.75;35.03;;;;;;;11.82;96.44;101347.50;4858847;29;20040;-77
2023/05/15 07:21:55;;;;;;;47.92;33.83;;;;;;;11.87;95.65;101339.09;4851641;29;20034;-78
2023/05/15 07:24:20;;;;;;;52.65;35.97;;;;;;;11.98;96.63;101346.47;4849063;29;20498;-78
2023/05/15 07:26:46;;;;;;;44.42;34.25;;;;;;;12.03;95.67;101350.53;4851155;29;20038;-78
2023/05/15 07:29:11;;;;;;;48.55;35.05;;;;;;;12.15;94.40;101338.03;4853380;29;20116;-78
2023/05/15 07:31:37;;;;;;;48.90;35.47;;;;;;;12.21;93.51;101337.56;4856774;29;20033;-78
2023/05/15 07:34:02;;;;;;;50.60;34.88;;;;;;;12.22;92.71;101343.81;4850115;29;20021;-80
2023/05/15 07:36:27;;;;;;;54.22;37.35;;;;;;;12.26;93.40;101339.09;4856797;29;20108;-79
2023/05/15 07:38:53;;;;;;;53.38;39.30;;;;;;;12.31;94.42;101328.81;4860299;29;20490;-79
2023/05/15 07:41:18;;;;;;;54.20;41.20;;;;;;;12.34;93.57;101328.59;4855204;29;20018;-78
2023/05/15 07:43:43;;;;;;;50.25;38.78;;;;;;;12.36;92.69;101329.34;4845634;29;20542;-79
2023/05/15 07:46:09;;;;;;;55.45;40.03;;;;;;;12.35;92.62;101333.88;4861076;29;20128;-76
2023/05/15 07:48:34;;;;;;;52.28;39.90;;;;;;;12.36;92.39;101335.59;4860989;29;20029;-77
2023/05/15 07:50:59;;;;;;;56.38;38.80;;;;;;;12.39;94.15;101329.13;4854451;29;20029;-76
2023/05/15 07:53:25;;;;;;;58.17;42.03;;;;;;;12.40;94.77;101326.31;4855298;29;20446;-76
2023/05/15 07:55:50;;;;;;;55.75;43.17;;;;;;;12.44;95.82;101323.38;4858394;29;20037;-76
2023/05/15 07:58:16;;;;;;;61.42;44.55;;;;;;;12.45;95.15;101317.03;4854350;29;20443;-76
2023/05/15 08:00:42;;;;;;;61.83;44.20;;;;;;;12.50;96.69;101322.94;4849965;29;20078;-76
2023/05/15 08:03:07;;;;;;;57.33;45.00;;;;;;;12.55;96.10;101321.63;4856153;29;20124;-76
2023/05/15 08:05:32;;;;;;;56.58;43.47;;;;;;;12.60;97.45;101323.97;4861044;29;20034;-76
2023/05/15 08:07:59;;;;;;;58.75;44.47;;;;;;;12.67;97.03;101325.25;4859095;29;20044;-76
2023/05/15 08:10:24;;;;;;;54.33;41.45;;;;;;;12.73;93.58;101334.72;4859636;29;20029;-76
2023/05/15 08:12:49;;;;;;;50.03;39.25;;;;;;;12.70;90.91;101329.53;4848579;29;20506;-76
2023/05/15 08:15:15;;;;;;;53.42;39.00;;;;;;;12.72;92.33;101335.69;4851351;29;20061;-77
2023/05/15 08:17:41;;;;;;;53.20;40.72;;;;;;;12.77;91.55;101328.13;4857423;29;20053;-76
2023/05/15 08:20:07;;;;;;;53.20;39.90;;;;;;;12.82;90.36;101323.22;4853752;29;20045;-76
2023/05/15 08:22:32;;;;;;;53.78;40.70;;;;;;;12.84;90.82;101334.78;4859535;29;20093;-76
2023/05/15 08:24:59;;;;;;;53.92;42.10;;;;;;;12.86;91.39;101332.81;4854539;29;20121;-76
2023/05/15 08:27:24;;;;;;;56.10;42.83;;;;;;;12.89;93.47;101324.47;4855240;29;20026;-76
2023/05/15 08:29:50;;;;;;;54.90;41.20;;;;;;;12.98;92.58;101331.03;4857517;29;20037;-77
2023/05/15 08:32:15;;;;;;;51.28;40.63;;;;;;;13.07;92.25;101324.91;4858564;29;20049;-77
2023/05/15 08:34:40;;;;;;;57.25;42.05;;;;;;;13.15;92.08;101321.66;4860060;29;20466;-76
2023/05/15 08:37:06;;;;;;;57.08;39.65;;;;;;;13.19;90.03;101323.13;4857146;29;20037;-76
2023/05/15 08:39:31;;;;;;;52.80;40.10;;;;;;;13.27;91.14;101326.09;4850095;29;20538;-77
2023/05/15 08:42:05;;;;;;;51.97;37.83;;;;;;;13.27;86.34;101319.84;4856341;29;20076;-76
2023/05/15 08:44:31;;;;;;;56.47;37.47;;;;;;;13.33;88.97;101324.75;4849492;29;20034;-77
2023/05/15 08:46:57;;;;;;;51.00;37.55;;;;;;;13.45;90.67;101317.56;4852097;29;20093;-77
2023/05/15 08:49:41;;;;;;;48.35;36.03;;;;;;;13.50;87.89;101328.88;4857223;29;20048;-76
2023/05/15 08:52:07;;;;;;;53.72;35.67;;;;;;;13.54;86.33;101324.94;4860297;29;20078;-77
2023/05/15 08:54:34;;;;;;;50.70;34.95;;;;;;;13.54;85.80;101319.53;4852676;29;20037;-76
2023/05/15 08:57:01;;;;;;;51.40;37.13;;;;;;;13.66;88.90;101314.16;4859027;29;20029;-78
2023/05/15 08:59:26;;;;;;;49.78;36.10;;;;;;;13.76;87.60;101318.75;4858147;29;20030;-78
2023/05/15 09:01:52;;;;;;;49.33;35.17;;;;;;;13.87;86.82;101314.31;4857082;29;20034;-77
2023/05/15 09:04:18;;;;;;;50.88;36.60;;;;;;;14.02;88.66;101315.78;4859488;29;20029;-77
2023/05/15 09:06:46;;;;;;;49.22;34.53;;;;;;;14.16;87.71;101311.97;4859387;29;20120;-72
2023/05/15 09:09:12;;;;;;;45.38;32.72;;;;;;;14.30;86.90;101324.34;4860807;29;20620;-72
2023/05/15 09:11:43;;;;;;;46.47;33.88;;;;;;;14.36;84.10;101312.19;4859632;29;20422;-71
2023/05/15 09:14:08;;;;;;;50.72;34.22;;;;;;;14.44;84.91;101318.66;4853252;29;20078;-71
2023/05/15 09:16:34;;;;;;;44.55;33.30;;;;;;;14.57;88.51;101318.53;4857344;29;20053;-71
2023/05/15 09:19:00;;;;;;;43.78;31.92;;;;;;;14.59;83.13;101321.94;4853303;29;20644;-72
2023/05/15 09:21:30;;;;;;;43.47;32.25;;;;;;;14.61;85.76;101313.72;4859094;29;20037;-71
2023/05/15 09:24:25;;;;;;;43.90;32.65;;;;;;;14.63;85.94;101320.75;4851554;29;20059;-72
2023/05/15 09:27:07;;;;;;;43.10;31.25;;;;;;;14.60;84.05;101318.25;4859514;29;20100;-71
2023/05/15 09:29:34;;;;;;;42.15;31.48;;;;;;;14.56;83.61;101314.09;4853091;29;20026;-71
2023/05/15 09:32:04;;;;;;;43.13;30.95;;;;;;;14.53;83.81;101318.91;4851306;29;20108;-72
2023/05/15 09:34:41;;;;;;;49.90;32.60;;;;;;;14.49;83.98;101321.00;4849859;29;20029;-71
2023/05/15 09:37:28;;;;;;;44.90;31.65;;;;;;;14.46;84.08;101318.53;4858483;29;20037;-72
2023/05/15 09:39:53;;;;;;;43.40;31.52;;;;;;;14.44;83.47;101320.53;4852725;29;20025;-71
2023/05/15 09:42:18;;;;;;;45.53;31.55;;;;;;;14.45;85.10;101316.81;4849286;29;20045;-72
2023/05/15 09:44:44;;;;;;;42.72;30.25;;;;;;;14.45;85.25;101323.09;4856747;29;20025;-71
2023/05/15 09:47:12;;;;;;;45.67;32.50;;;;;;;14.49;86.77;101319.16;4857244;29;20080;-78
2023/05/15 09:49:37;;;;;;;42.50;29.83;;;;;;;14.54;86.81;101321.50;4859791;29;20066;-72
2023/05/15 09:52:06;;;;;;;46.78;33.85;;;;;;;14.56;85.04;101319.50;4852258;29;20037;-79
2023/05/15 09:54:32;;;;;;;41.97;29.90;;;;;;;14.57;83.16;101320.34;4849491;29;20054;-81
2023/05/15 09:57:09;;;;;;;41.80;30.55;;;;;;;14.60;84.46;101326.38;4852326;29;20341;-78
2023/05/15 09:59:35;;;;;;;41.83;31.02;;;;;;;14.63;85.33;101326.16;4859024;29;20041;-80
2023/05/15 10:02:00;;;;;;;42.45;28.88;;;;;;;14.65;83.07;101326.88;4859726;29;20447;-79
2023/05/15 10:04:25;;;;;;;49.58;31.25;;;;;;;14.67;83.13;101327.63;4843734;29;20082;-79
2023/05/15 10:06:52;;;;;;;42.30;30.52;;;;;;;14.67;81.80;101327.63;4852065;29;20026;-79
2023/05/15 10:09:17;;;;;;;42.90;30.92;;;;;;;14.62;81.46;101326.28;4851032;29;20044;-79
2023/05/15 10:11:48;;;;;;;42.63;30.05;;;;;;;14.62;81.02;101326.28;4855717;29;20033;-78
2023/05/15 10:14:16;;;;;;;40.55;29.77;;;;;;;14.61;83.15;101328.16;4852937;29;20501;-79
2023/05/15 10:16:41;;;;;;;41.95;29.77;;;;;;;14.65;83.94;101328.72;4854415;29;20049;-78
2023/05/15 10:19:09;;;;;;;40.65;29.38;;;;;;;14.67;85.17;101337.56;4849708;29;20098;-78
2023/05/15 10:21:36;;;;;;;43.45;27.90;;;;;;;14.66;83.41;101333.16;4847905;29;20125;-79
2023/05/15 10:24:03;;;;;;;37.90;26.92;;;;;;;14.71;85.30;101338.19;4854187;29;20060;-79
2023/05/15 10:26:38;;;;;;;44.38;26.70;;;;;;;14.73;85.17;101345.19;4852115;29;20057;-80
2023/05/15 10:29:06;;;;;;;37.13;26.52;;;;;;;14.74;85.77;101332.53;4857904;29;20455;-77
2023/05/15 10:31:33;;;;;;;40.83;26.85;;;;;;;14.74;85.58;101332.53;4853672;29;20121;-78
2023/05/15 10:33:59;;;;;;;42.05;26.60;;;;;;;14.75;84.21;101336.97;4848852;29;20369;-78
2023/05/15 10:36:25;;;;;;;41.50;28.60;;;;;;;14.80;87.08;101329.28;4850617;29;20486;-78
2023/05/15 10:38:51;;;;;;;43.17;27.52;;;;;;;14.78;84.35;101345.66;4851989;29;20069;-78
2023/05/15 10:41:20;;;;;;;41.72;28.38;;;;;;;14.80;84.75;101332.00;4847958;29;20113;-78
2023/05/15 10:43:45;;;;;;;42.60;28.80;;;;;;;14.79;84.64;101344.69;4847629;29;20026;-78
2023/05/15 10:46:12;;;;;;;37.65;27.42;;;;;;;14.74;83.11;101341.50;4850202;29;20063;-78
2023/05/15 10:48:39;;;;;;;37.92;27.20;;;;;;;14.75;82.98;101335.09;4851400;29;20036;-78
2023/05/15 10:51:04;;;;;;;39.05;26.13;;;;;;;14.79;87.25;101333.84;4850473;29;20133;-78
2023/05/15 10:53:31;;;;;;;39.97;26.55;;;;;;;14.81;85.81;101339.13;4855171;29;20473;-78
2023/05/15 10:55:56;;;;;;;41.00;27.40;;;;;;;14.86;88.22;101342.31;4850778;29;20410;-78
2023/05/15 10:58:23;;;;;;;42.42;27.42;;;;;;;14.83;85.71;101342.56;4852497;29;20034;-78
2023/05/15 11:00:48;;;;;;;37.47;27.05;;;;;;;14.77;86.42;101338.53;4852382;29;20070;-78
2023/05/15 11:03:14;;;;;;;41.30;28.85;;;;;;;14.76;85.77;101344.06;4852111;29;20069;-78
2023/05/15 11:06:07;;;;;;;44.75;30.20;;;;;;;14.72;85.82;101332.66;4853808;29;20133;-78